createdAt,value
2018-11-27T00:00:34.485Z,46.80
2018-11-27T00:03:05.728Z,44.40
2018-11-27T00:05:35.162Z,42.80
2018-11-27T00:08:03.788Z,40.57
2018-11-27T00:10:33.574Z,49.23
2018-11-27T00:13:02.095Z,41.43
2018-11-27T00:15:30.618Z,55.07
2018-11-27T00:17:59.236Z,50.10
2018-11-27T00:20:28.398Z,47.47
2018-11-27T00:22:57.006Z,50.37
2018-11-27T00:25:25.470Z,50.47
2018-11-27T00:27:53.982Z,47.23
2018-11-27T00:30:22.763Z,52.80
2018-11-27T00:32:51.252Z,49.10
2018-11-27T00:35:20.551Z,44.70
2018-11-27T00:37:49.055Z,43.93
2018-11-27T00:40:19.469Z,48.13
2018-11-27T00:42:47.925Z,57.53
2018-11-27T00:45:17.540Z,51.93
2018-11-27T00:47:47.086Z,52.73
2018-11-27T00:50:16.639Z,52.90
2018-11-27T00:52:45.212Z,54.17
2018-11-27T00:55:14.850Z,47.70
2018-11-27T00:57:44.470Z,52.00
2018-11-27T01:00:16.900Z,53.27
2018-11-27T01:02:45.450Z,48.50
2018-11-27T01:05:16.184Z,49.90
2018-11-27T01:07:44.774Z,57.50
2018-11-27T01:10:15.409Z,58.73
2018-11-27T01:12:43.957Z,53.57
2018-11-27T01:15:20.061Z,50.12
2018-11-27T01:17:54.841Z,63.10
2018-11-27T01:20:23.693Z,49.07
2018-11-27T01:22:52.155Z,61.23
2018-11-27T01:25:20.603Z,57.37
2018-11-27T01:27:49.158Z,54.13
2018-11-27T01:30:18.890Z,51.47
2018-11-27T01:32:48.141Z,55.13
2018-11-27T01:35:17.539Z,53.77
2018-11-27T01:37:46.547Z,59.70
2018-11-27T01:40:19.251Z,55.03
2018-11-27T01:42:48.859Z,55.17
2018-11-27T01:45:18.556Z,47.97
2018-11-27T01:47:47.357Z,58.17
2018-11-27T01:50:16.689Z,53.83
2018-11-27T01:52:45.856Z,52.20
2018-11-27T01:55:16.398Z,58.70
2018-11-27T01:57:44.971Z,52.03
2018-11-27T02:00:25.329Z,53.53
2018-11-27T02:02:55.124Z,47.30
2018-11-27T02:05:24.338Z,45.70
2018-11-27T02:07:53.025Z,55.00
2018-11-27T02:10:21.615Z,53.00
2018-11-27T02:12:51.203Z,54.30
2018-11-27T02:15:20.754Z,55.20
2018-11-27T02:17:49.173Z,51.73
2018-11-27T02:20:17.804Z,51.10
2018-11-27T02:22:46.406Z,50.93
2018-11-27T02:25:20.100Z,56.93
2018-11-27T02:27:48.587Z,52.37
2018-11-27T02:30:18.077Z,54.70
2018-11-27T02:32:46.712Z,54.33
2018-11-27T02:35:17.213Z,56.93
2018-11-27T02:37:46.224Z,52.90
2018-11-27T02:40:16.739Z,65.80
2018-11-27T02:42:45.195Z,54.80
2018-11-27T02:45:14.765Z,57.97
2018-11-27T02:47:43.774Z,56.30
2018-11-27T02:50:13.477Z,53.80
2018-11-27T02:52:41.901Z,59.50
2018-11-27T02:55:13.537Z,55.23
2018-11-27T02:57:42.137Z,56.20
2018-11-27T03:00:12.009Z,58.20
2018-11-27T03:02:41.090Z,64.60
2018-11-27T03:05:11.923Z,62.53
2018-11-27T03:07:40.509Z,59.23
2018-11-27T03:10:14.282Z,64.17
2018-11-27T03:12:42.746Z,66.87
2018-11-27T03:15:15.071Z,66.27
2018-11-27T03:17:43.533Z,60.80
2018-11-27T03:20:14.078Z,64.53
2018-11-27T03:22:42.645Z,63.57
2018-11-27T03:25:13.166Z,63.63
2018-11-27T03:27:41.649Z,59.57
2018-11-27T03:30:12.435Z,61.07
2018-11-27T03:32:41.115Z,63.97
2018-11-27T03:35:11.213Z,63.57
2018-11-27T03:37:39.826Z,64.20
2018-11-27T03:40:14.424Z,65.93
2018-11-27T03:42:43.039Z,58.97
2018-11-27T03:45:12.626Z,71.27
2018-11-27T03:47:41.092Z,63.63
2018-11-27T03:50:11.728Z,61.43
2018-11-27T03:52:40.267Z,67.77
2018-11-27T03:55:09.653Z,70.63
2018-11-27T03:57:39.166Z,73.70
2018-11-27T04:00:11.874Z,69.53
2018-11-27T04:02:40.298Z,70.30
2018-11-27T04:05:09.736Z,67.83
2018-11-27T04:07:38.335Z,68.13
2018-11-27T04:10:10.348Z,71.17
2018-11-27T04:12:38.977Z,83.23
2018-11-27T04:15:07.797Z,77.70
2018-11-27T04:17:36.379Z,69.40
2018-11-27T04:20:05.209Z,76.47
2018-11-27T04:22:33.861Z,72.97
2018-11-27T04:25:03.348Z,71.33
2018-11-27T04:27:31.832Z,73.53
2018-11-27T04:30:00.317Z,72.90
2018-11-27T04:32:28.801Z,81.30
2018-11-27T04:34:57.389Z,74.50
2018-11-27T04:37:25.830Z,79.77
2018-11-27T04:39:54.376Z,82.97
2018-11-27T04:42:22.846Z,75.77
2018-11-27T04:44:51.335Z,76.03
2018-11-27T04:47:19.817Z,85.33
2018-11-27T04:49:49.023Z,76.63
2018-11-27T04:52:17.501Z,87.43
2018-11-27T04:54:46.053Z,79.97
2018-11-27T04:57:14.568Z,80.77
2018-11-27T04:59:43.159Z,83.20
2018-11-27T05:02:11.635Z,84.73
2018-11-27T05:04:40.154Z,84.90
2018-11-27T05:07:08.610Z,85.03
2018-11-27T05:09:37.037Z,93.03
2018-11-27T05:12:05.715Z,75.93
2018-11-27T05:14:34.209Z,80.10
2018-11-27T05:17:02.860Z,88.17
2018-11-27T05:19:31.273Z,86.83
2018-11-27T05:21:59.772Z,83.57
2018-11-27T05:24:28.292Z,79.43
2018-11-27T05:26:56.720Z,81.07
2018-11-27T05:29:25.619Z,87.80
2018-11-27T05:31:54.183Z,79.77
2018-11-27T05:34:22.661Z,85.10
2018-11-27T05:36:51.175Z,89.47
2018-11-27T05:39:19.619Z,76.10
2018-11-27T05:41:48.123Z,89.17
2018-11-27T05:44:16.612Z,96.83
2018-11-27T05:46:45.141Z,99.60
2018-11-27T05:49:14.699Z,90.97
2018-11-27T05:51:43.181Z,86.63
2018-11-27T05:54:11.666Z,88.53
2018-11-27T05:56:40.125Z,88.90
2018-11-27T05:59:08.678Z,86.60
2018-11-27T06:01:37.231Z,82.47
2018-11-27T06:04:06.219Z,88.53
2018-11-27T06:06:34.707Z,85.30
2018-11-27T06:09:03.486Z,90.77
2018-11-27T06:11:31.983Z,97.63
2018-11-27T06:14:00.469Z,87.63
2018-11-27T06:16:28.917Z,85.40
2018-11-27T06:18:57.440Z,85.80
2018-11-27T06:21:26.138Z,90.07
2018-11-27T06:23:54.714Z,93.20
2018-11-27T06:26:23.302Z,80.67
2018-11-27T06:28:51.788Z,88.57
2018-11-27T06:31:20.374Z,86.37
2018-11-27T06:33:48.872Z,87.50
2018-11-27T06:36:17.434Z,85.67
2018-11-27T06:38:45.938Z,90.00
2018-11-27T06:41:14.506Z,88.93
2018-11-27T06:43:43.026Z,95.73
2018-11-27T06:46:11.474Z,91.80
2018-11-27T06:48:39.973Z,85.13
2018-11-27T06:51:08.582Z,88.03
2018-11-27T06:53:37.137Z,87.53
2018-11-27T06:56:06.244Z,87.40
2018-11-27T06:58:34.834Z,85.67
2018-11-27T07:01:03.523Z,92.17
2018-11-27T07:03:32.109Z,92.63
2018-11-27T07:06:00.687Z,82.37
2018-11-27T07:08:29.129Z,81.63
2018-11-27T07:10:57.611Z,84.13
2018-11-27T07:13:26.406Z,76.93
2018-11-27T07:15:54.943Z,82.60
2018-11-27T07:18:23.394Z,80.03
2018-11-27T07:20:52.065Z,78.87
2018-11-27T07:23:20.583Z,77.63
2018-11-27T07:25:49.089Z,77.00
2018-11-27T07:28:17.595Z,83.47
2018-11-27T07:30:46.160Z,75.17
2018-11-27T07:33:14.625Z,74.23
2018-11-27T07:35:43.062Z,73.93
2018-11-27T07:38:11.643Z,76.13
2018-11-27T07:40:40.062Z,73.63
2018-11-27T07:43:12.676Z,72.40
2018-11-27T07:45:41.459Z,72.30
2018-11-27T07:48:10.468Z,59.83
2018-11-27T07:50:39.577Z,60.43
2018-11-27T07:53:08.361Z,65.60
2018-11-27T07:55:37.176Z,59.37
2018-11-27T07:58:06.334Z,64.80
2018-11-27T08:00:35.479Z,55.67
2018-11-27T08:03:04.547Z,56.10
2018-11-27T08:05:39.350Z,53.53
2018-11-27T08:08:09.375Z,47.33
2018-11-27T08:10:37.848Z,60.37
2018-11-27T08:13:07.603Z,53.33
2018-11-27T08:15:36.118Z,51.77
2018-11-27T08:18:04.769Z,55.43
2018-11-27T08:20:33.985Z,47.57
2018-11-27T08:23:02.653Z,45.70
2018-11-27T08:25:31.166Z,45.93
2018-11-27T08:28:00.244Z,48.00
2018-11-27T08:30:28.711Z,44.37
2018-11-27T08:32:58.028Z,43.70
2018-11-27T08:35:27.945Z,46.13
2018-11-27T08:38:00.596Z,41.37
2018-11-27T08:40:30.412Z,36.10
2018-11-27T08:43:05.150Z,36.73
2018-11-27T08:45:33.612Z,33.47
2018-11-27T08:48:02.247Z,39.63
2018-11-27T08:50:30.808Z,32.10
2018-11-27T08:53:00.973Z,34.73
2018-11-27T09:00:21.711Z,31.13
2018-11-27T09:02:50.296Z,33.00
2018-11-27T09:05:18.981Z,31.43
2018-11-27T09:07:48.057Z,69.77
2018-11-27T09:10:17.679Z,38.93
2018-11-27T09:12:46.620Z,36.37
2018-11-27T09:15:19.204Z,50.23
2018-11-27T09:17:51.175Z,44.03
2018-11-27T09:20:20.907Z,36.47
2018-11-27T09:22:48.302Z,37.13
2018-11-27T09:25:16.796Z,41.20
2018-11-27T09:27:45.267Z,31.53
2018-11-27T09:30:18.967Z,33.10
2018-11-27T09:32:47.437Z,35.80
2018-11-27T09:35:15.925Z,40.00
2018-11-27T09:37:44.411Z,39.07
2018-11-27T09:40:13.944Z,37.83
2018-11-27T09:42:42.489Z,38.73
2018-11-27T09:45:15.526Z,40.47
2018-11-27T09:47:44.808Z,45.30
2018-11-27T09:50:14.309Z,35.23
2018-11-27T09:52:43.356Z,85.03
2018-11-27T09:55:12.976Z,44.77
2018-11-27T09:57:41.422Z,35.87
2018-11-27T10:00:14.917Z,34.93
2018-11-27T10:02:43.445Z,44.30
2018-11-27T10:05:12.900Z,42.87
2018-11-27T10:07:41.467Z,42.23
2018-11-27T10:10:11.122Z,41.60
2018-11-27T10:12:40.074Z,38.63
2018-11-27T10:15:18.090Z,36.73
2018-11-27T10:17:49.998Z,40.03
2018-11-27T10:20:21.575Z,37.20
2018-11-27T10:22:50.074Z,34.43
2018-11-27T10:25:18.735Z,36.07
2018-11-27T10:27:47.270Z,33.87
2018-11-27T10:30:17.706Z,31.97
2018-11-27T10:32:46.709Z,30.33
2018-11-27T10:35:24.571Z,28.17
2018-11-27T10:37:53.065Z,29.13
2018-11-27T10:40:21.495Z,30.93
2018-11-27T10:42:50.136Z,29.20
2018-11-27T10:45:20.696Z,24.77
2018-11-27T10:47:51.304Z,29.07
2018-11-27T10:50:19.922Z,27.30
2018-11-27T10:52:53.442Z,27.23
2018-11-27T10:55:22.504Z,26.67
2018-11-27T10:57:51.007Z,26.73
2018-11-27T11:00:27.851Z,23.67
2018-11-27T11:03:07.055Z,26.30
2018-11-27T11:05:36.616Z,23.50
2018-11-27T11:08:06.062Z,25.77
2018-11-27T11:10:35.080Z,29.70
2018-11-27T11:13:03.733Z,39.67
2018-11-27T11:15:32.806Z,27.77
2018-11-27T11:18:01.368Z,23.10
2018-11-27T11:20:29.806Z,24.33
2018-11-27T11:22:58.364Z,24.10
2018-11-27T11:25:26.951Z,51.37
2018-11-27T11:27:56.703Z,26.87
2018-11-27T11:30:25.132Z,25.77
2018-11-27T11:32:53.679Z,24.63
2018-11-27T11:35:22.116Z,23.27
2018-11-27T11:37:50.947Z,21.70
2018-11-27T11:40:22.971Z,25.43
2018-11-27T11:42:52.588Z,20.23
2018-11-27T11:45:21.077Z,24.07
2018-11-27T11:47:49.917Z,21.80
2018-11-27T11:50:24.501Z,23.03
2018-11-27T11:52:57.327Z,23.17
2018-11-27T11:55:25.762Z,25.20
2018-11-27T11:57:54.245Z,28.57
2018-11-27T12:00:25.467Z,18.80
2018-11-27T12:02:53.936Z,26.47
2018-11-27T12:05:25.102Z,25.50
2018-11-27T12:07:50.931Z,21.13
2018-11-27T12:10:19.389Z,24.33
2018-11-27T12:12:48.090Z,20.13
2018-11-27T12:15:17.621Z,23.03
2018-11-27T12:17:46.669Z,20.40
2018-11-27T12:20:16.109Z,19.90
2018-11-27T12:22:46.811Z,21.73
2018-11-27T12:25:15.300Z,20.43
2018-11-27T12:27:43.877Z,30.30
2018-11-27T12:30:17.323Z,20.87
2018-11-27T12:32:45.832Z,19.67
2018-11-27T12:35:15.127Z,24.30
2018-11-27T12:37:43.706Z,19.70
2018-11-27T12:40:20.418Z,24.03
2018-11-27T12:42:48.970Z,19.37
2018-11-27T12:45:19.576Z,15.83
2018-11-27T12:47:48.656Z,16.70
2018-11-27T12:50:22.513Z,14.90
2018-11-27T12:52:51.169Z,19.77
2018-11-27T12:55:21.055Z,17.43
2018-11-27T12:57:49.607Z,24.60
2018-11-27T13:00:19.851Z,19.80
2018-11-27T13:02:48.709Z,22.17
2018-11-27T13:05:25.296Z,18.23
2018-11-27T13:07:55.573Z,33.23
2018-11-27T13:10:24.320Z,22.47
2018-11-27T13:12:52.801Z,18.83
2018-11-27T13:15:21.881Z,17.63
2018-11-27T13:17:51.590Z,23.57
2018-11-27T13:20:20.291Z,30.03
2018-11-27T13:22:49.385Z,18.90
2018-11-27T13:25:20.951Z,19.57
2018-11-27T13:27:50.674Z,17.27
2018-11-27T13:30:39.766Z,15.43
2018-11-27T13:33:20.487Z,18.23
2018-11-27T13:35:48.971Z,16.23
2018-11-27T13:38:17.855Z,17.67
2018-11-27T13:40:46.455Z,18.73
2018-11-27T13:43:27.658Z,16.57
2018-11-27T13:45:57.176Z,19.63
2018-11-27T13:48:25.715Z,17.50
2018-11-27T13:50:54.606Z,16.97
2018-11-27T13:53:24.251Z,15.07
2018-11-27T13:55:53.203Z,15.67
2018-11-27T13:58:21.682Z,19.07
2018-11-27T14:00:56.950Z,16.93
2018-11-27T14:03:25.647Z,17.63
2018-11-27T14:05:54.703Z,19.70
2018-11-27T14:08:23.245Z,18.93
2018-11-27T14:10:51.857Z,21.83
2018-11-27T14:13:20.324Z,17.77
2018-11-27T14:15:48.977Z,18.27
2018-11-27T14:18:17.560Z,16.63
2018-11-27T14:20:46.257Z,19.00
2018-11-27T14:23:14.748Z,23.13
2018-11-27T14:25:43.387Z,22.00
2018-11-27T14:28:11.864Z,20.73
2018-11-27T14:30:41.284Z,21.23
2018-11-27T14:33:09.727Z,24.97
2018-11-27T14:35:38.192Z,24.40
2018-11-27T14:38:06.964Z,22.13
2018-11-27T14:40:35.443Z,22.70
2018-11-27T14:43:04.440Z,23.23
2018-11-27T14:45:33.047Z,20.57
2018-11-27T14:48:01.735Z,22.13
2018-11-27T14:50:30.181Z,20.43
2018-11-27T14:52:58.804Z,20.07
2018-11-27T14:55:29.647Z,18.27
2018-11-27T14:57:58.336Z,20.87
2018-11-27T15:00:27.246Z,22.60
2018-11-27T15:02:56.262Z,22.50
2018-11-27T15:05:34.918Z,18.70
2018-11-27T15:08:04.282Z,20.60
2018-11-27T15:10:32.834Z,24.23
2018-11-27T15:13:01.627Z,23.13
2018-11-27T15:15:30.282Z,25.13
2018-11-27T15:17:59.822Z,25.70
2018-11-27T15:20:28.263Z,23.77
2018-11-27T15:22:56.786Z,26.00
2018-11-27T15:25:25.411Z,25.33
2018-11-27T15:27:53.875Z,25.53
2018-11-27T15:30:24.379Z,27.50
2018-11-27T15:32:54.318Z,27.90
2018-11-27T15:35:22.778Z,28.27
2018-11-27T15:37:51.260Z,29.40
2018-11-27T15:40:21.668Z,30.07
2018-11-27T15:42:50.649Z,31.83
2018-11-27T15:45:20.390Z,30.37
2018-11-27T15:47:49.216Z,28.33
2018-11-27T15:50:17.807Z,30.10
2018-11-27T15:52:46.402Z,32.47
2018-11-27T15:55:31.956Z,30.87
2018-11-27T15:58:06.938Z,33.17
2018-11-27T16:00:35.615Z,36.93
2018-11-27T16:03:04.191Z,42.67
2018-11-27T16:05:33.271Z,32.57
2018-11-27T16:08:01.755Z,30.97
2018-11-27T16:10:30.214Z,24.03
2018-11-27T16:12:58.834Z,25.57
2018-11-27T16:15:27.379Z,29.33
2018-11-27T16:17:55.889Z,30.90
2018-11-27T16:20:24.338Z,55.50
2018-11-27T16:22:53.182Z,45.67
2018-11-27T16:25:22.929Z,28.27
2018-11-27T16:27:51.969Z,27.97
2018-11-27T16:30:22.589Z,26.77
2018-11-27T16:32:51.313Z,24.30
2018-11-27T16:35:19.903Z,26.70
2018-11-27T16:37:53.725Z,25.77
2018-11-27T16:40:26.550Z,22.27
2018-11-27T16:42:55.080Z,27.47
2018-11-27T16:45:24.114Z,24.80
2018-11-27T16:47:53.070Z,23.07
2018-11-27T16:50:21.671Z,25.13
2018-11-27T16:52:50.436Z,26.47
2018-11-27T16:55:21.901Z,26.57
2018-11-27T16:57:51.216Z,25.70
2018-11-27T17:00:23.973Z,25.73
2018-11-27T17:02:54.699Z,25.07
2018-11-27T17:05:23.313Z,30.17
2018-11-27T17:07:52.010Z,26.97
2018-11-27T17:10:21.471Z,25.30
2018-11-27T17:12:51.584Z,25.93
2018-11-27T17:15:22.251Z,24.83
2018-11-27T17:17:50.940Z,25.27
2018-11-27T17:20:25.885Z,28.50
2018-11-27T17:22:55.083Z,24.33
2018-11-27T17:25:23.568Z,27.37
2018-11-27T17:27:52.673Z,29.80
2018-11-27T17:30:31.397Z,25.10
2018-11-27T17:33:00.257Z,25.50
2018-11-27T17:35:29.794Z,26.63
2018-11-27T17:37:58.330Z,24.87
2018-11-27T17:40:26.890Z,28.57
2018-11-27T17:42:55.365Z,31.73
2018-11-27T17:45:23.834Z,25.10
2018-11-27T17:47:52.330Z,26.67
2018-11-27T17:50:20.910Z,28.30
2018-11-27T17:52:49.496Z,29.27
2018-11-27T17:55:17.979Z,24.57
2018-11-27T17:57:46.569Z,24.27
2018-11-27T18:00:18.894Z,31.17
2018-11-27T18:02:49.190Z,33.13
2018-11-27T18:05:17.855Z,31.07
2018-11-27T18:07:46.441Z,36.87
2018-11-27T18:10:15.035Z,28.10
2018-11-27T18:12:43.611Z,47.10
2018-11-27T18:15:14.375Z,30.17
2018-11-27T18:17:42.988Z,36.63
2018-11-27T18:20:12.454Z,37.90
2018-11-27T18:22:41.014Z,40.87
2018-11-27T18:25:15.426Z,37.30
2018-11-27T18:27:44.924Z,34.30
2018-11-27T18:30:16.284Z,35.40
2018-11-27T18:32:45.209Z,28.17
2018-11-27T18:35:15.020Z,28.07
2018-11-27T18:37:43.572Z,27.77
2018-11-27T18:40:14.061Z,28.13
2018-11-27T18:42:42.860Z,29.43
2018-11-27T18:45:13.480Z,25.10
2018-11-27T18:47:41.984Z,28.10
2018-11-27T18:50:11.135Z,31.07
2018-11-27T18:52:39.849Z,30.30
2018-11-27T18:55:10.576Z,28.87
2018-11-27T18:57:39.234Z,28.80
2018-11-27T19:00:25.698Z,27.97
2018-11-27T19:02:54.250Z,30.00
2018-11-27T19:05:22.940Z,29.73
2018-11-27T19:07:51.577Z,27.37
2018-11-27T19:10:24.513Z,30.47
2018-11-27T19:12:53.613Z,29.13
2018-11-27T19:15:52.776Z,27.57
2018-11-27T19:18:23.562Z,31.43
2018-11-27T19:20:52.210Z,28.50
2018-11-27T19:23:22.248Z,27.23
2018-11-27T19:25:50.771Z,33.10
2018-11-27T19:28:19.316Z,29.73
2018-11-27T19:30:48.149Z,30.23
2018-11-27T19:33:16.773Z,30.93
2018-11-27T19:35:45.345Z,28.70
2018-11-27T19:38:15.523Z,29.73
2018-11-27T19:40:44.148Z,38.90
2018-11-27T19:43:12.689Z,30.37
2018-11-27T19:45:41.185Z,35.37
2018-11-27T19:48:10.472Z,38.40
2018-11-27T19:50:39.158Z,34.90
2018-11-27T19:53:12.550Z,37.03
2018-11-27T19:55:40.966Z,34.97
2018-11-27T19:58:10.247Z,39.80
2018-11-27T20:00:39.179Z,38.97
2018-11-27T20:03:09.194Z,34.83
2018-11-27T20:05:37.723Z,34.70
2018-11-27T20:08:08.274Z,37.57
2018-11-27T20:10:37.579Z,36.70
2018-11-27T20:13:06.140Z,35.70
2018-11-27T20:15:34.683Z,39.93
2018-11-27T20:18:03.698Z,34.57
2018-11-27T20:20:32.336Z,40.50
2018-11-27T20:23:00.921Z,36.27
2018-11-27T20:25:29.509Z,33.57
2018-11-27T20:27:58.007Z,34.17
2018-11-27T20:30:27.533Z,38.80
2018-11-27T20:32:57.073Z,35.93
2018-11-27T20:35:26.082Z,38.73
2018-11-27T20:37:55.101Z,43.83
2018-11-27T20:40:24.027Z,37.20
2018-11-27T20:42:52.558Z,45.53
2018-11-27T20:45:22.287Z,43.67
2018-11-27T20:47:56.045Z,42.53
2018-11-27T20:50:25.305Z,40.93
2018-11-27T20:52:53.855Z,37.80
2018-11-27T20:55:22.624Z,37.07
2018-11-27T20:57:56.454Z,46.80
2018-11-27T21:00:28.548Z,42.40
2018-11-27T21:02:58.998Z,39.97
2018-11-27T21:05:27.634Z,37.80
2018-11-27T21:07:56.791Z,46.70
2018-11-27T21:10:25.502Z,40.23
2018-11-27T21:12:54.156Z,45.03
2018-11-27T21:15:22.747Z,41.33
2018-11-27T21:17:51.405Z,41.83
2018-11-27T21:20:19.909Z,44.67
2018-11-27T21:22:48.388Z,43.00
2018-11-27T21:25:19.874Z,43.30
2018-11-27T21:28:21.350Z,51.40
2018-11-27T21:30:51.429Z,44.10
2018-11-27T21:33:20.106Z,42.13
2018-11-27T21:35:48.692Z,48.47
2018-11-27T21:38:17.793Z,53.73
2018-11-27T21:40:46.369Z,44.37
2018-11-27T21:43:14.959Z,39.43
2018-11-27T21:45:43.655Z,52.37
2018-11-27T21:48:13.058Z,45.58
2018-11-27T21:50:42.593Z,50.23
2018-11-27T21:53:11.155Z,46.00
2018-11-27T21:55:40.721Z,44.83
2018-11-27T21:58:09.305Z,54.17
2018-11-27T22:00:39.028Z,47.00
2018-11-27T22:03:08.010Z,53.63
2018-11-27T22:05:36.717Z,53.23
2018-11-27T22:08:05.951Z,56.73
2018-11-27T22:10:35.565Z,51.07
2018-11-27T22:13:04.136Z,50.37
2018-11-27T22:15:37.675Z,50.47
2018-11-27T22:18:07.668Z,63.27
2018-11-27T22:20:36.194Z,67.47
2018-11-27T22:23:04.944Z,60.17
2018-11-27T22:25:33.533Z,66.40
2018-11-27T22:28:02.736Z,56.30
2018-11-27T22:30:31.232Z,59.17
2018-11-27T22:33:00.027Z,63.40
2018-11-27T22:35:28.473Z,60.97
2018-11-27T22:37:57.143Z,56.67
2018-11-27T22:40:26.325Z,58.77
2018-11-27T22:42:55.306Z,55.93
2018-11-27T22:45:26.297Z,56.33
2018-11-27T22:47:54.842Z,47.27
2018-11-27T22:50:23.403Z,55.97
2018-11-27T22:52:52.089Z,57.90
2018-11-27T22:55:20.658Z,54.37
2018-11-27T22:57:49.117Z,50.53
2018-11-27T23:00:34.139Z,51.10
2018-11-27T23:03:03.116Z,56.67
2018-11-27T23:05:31.667Z,60.30
2018-11-27T23:08:00.299Z,58.60
2018-11-27T23:10:30.500Z,57.70
2018-11-27T23:12:58.991Z,61.07
2018-11-27T23:15:27.615Z,53.17
2018-11-27T23:17:56.204Z,55.07
2018-11-27T23:20:25.375Z,53.87
2018-11-27T23:22:53.880Z,57.00
2018-11-27T23:25:23.265Z,53.43
2018-11-27T23:27:51.846Z,49.20
2018-11-27T23:30:25.039Z,49.37
2018-11-27T23:32:53.528Z,51.47
2018-11-27T23:35:22.024Z,46.90
2018-11-27T23:37:50.503Z,46.83
2018-11-27T23:40:21.035Z,45.33
2018-11-27T23:42:49.531Z,48.07
2018-11-27T23:45:20.352Z,47.77
2018-11-27T23:47:48.857Z,42.83
2018-11-27T23:50:18.435Z,41.50
2018-11-27T23:52:47.165Z,40.10
2018-11-27T23:55:16.577Z,40.43
2018-11-27T23:57:45.307Z,40.30
